Time;durP1;ratioP1;P1;durP2;ratioP2;P2;SDS_P1;SDS_P2;PMS_P1;PMS_P2;Temp;Humidity;BMP_temperature;BMP_pressure;BME280_temperature;BME280_humidity;BME280_pressure;Samples;Min_cycle;Max_cycle;Signal;HPM_P1;HPM_P2
2023/05/18 00:01:09;;;;;;;6.00;4.47;;;;;;;;;;5046709;28;20205;-63
2023/05/18 00:03:36;;;;;;;7.63;4.70;;;;;;;;;;5067336;28;20201;-64
2023/05/18 00:06:06;;;;;;;6.87;4.97;;;;;;;;;;5063197;28;20460;-65
2023/05/18 00:08:34;;;;;;;9.40;4.80;;;;;;;;;;5075930;28;20285;-63
2023/05/18 00:11:06;;;;;;;6.80;4.90;;;;;;;;;;5047892;28;20217;-63
2023/05/18 00:13:47;;;;;;;6.73;4.77;;;;;;;;;;5045241;28;20230;-63
2023/05/18 00:16:18;;;;;;;8.37;5.10;;;;;;;;;;5061865;28;20288;-62
2023/05/18 00:18:53;;;;;;;7.77;4.70;;;;;;;;;;5058693;28;20229;-63
2023/05/18 00:21:21;;;;;;;8.43;5.47;;;;;;;;;;5062876;28;20217;-62
2023/05/18 00:23:50;;;;;;;6.70;5.30;;;;;;;;;;5046315;28;20201;-63
2023/05/18 00:26:20;;;;;;;6.17;4.87;;;;;;;;;;5073163;28;20281;-64
2023/05/18 00:28:50;;;;;;;5.63;4.73;;;;;;;;;;5073650;28;20453;-64
2023/05/18 00:31:21;;;;;;;5.10;4.60;;;;;;;;;;5048746;28;20201;-63
2023/05/18 00:33:49;;;;;;;5.90;4.73;;;;;;;;;;5045066;28;20197;-62
2023/05/18 00:36:16;;;;;;;6.90;4.77;;;;;;;;;;5036684;28;20222;-63
2023/05/18 00:38:43;;;;;;;8.43;5.47;;;;;;;;;;5062009;28;20264;-63
2023/05/18 00:41:20;;;;;;;8.20;5.43;;;;;;;;;;5048173;28;20228;-63
2023/05/18 00:43:53;;;;;;;7.87;5.20;;;;;;;;;;5070522;28;20553;-64
2023/05/18 00:46:35;;;;;;;9.60;4.80;;;;;;;;;;5070515;28;20248;-62
2023/05/18 00:49:04;;;;;;;8.50;5.03;;;;;;;;;;5075095;28;20226;-63
2023/05/18 00:51:34;;;;;;;7.50;5.17;;;;;;;;;;5047357;28;20291;-63
2023/05/18 00:54:02;;;;;;;10.10;4.90;;;;;;;;;;5043067;28;20217;-64
2023/05/18 00:56:32;;;;;;;6.77;5.17;;;;;;;;;;5062453;28;20722;-65
2023/05/18 00:59:02;;;;;;;8.77;4.87;;;;;;;;;;5041303;28;20279;-62
2023/05/18 01:01:42;;;;;;;8.67;5.57;;;;;;;;;;5024620;28;20217;-64
2023/05/18 01:04:12;;;;;;;8.43;4.87;;;;;;;;;;5064708;28;20209;-63
2023/05/18 01:06:41;;;;;;;6.07;4.77;;;;;;;;;;5064464;28;20221;-63
2023/05/18 01:09:10;;;;;;;6.10;4.77;;;;;;;;;;5043733;28;20229;-63
2023/05/18 01:11:43;;;;;;;8.47;4.80;;;;;;;;;;5051975;28;20206;-65
2023/05/18 01:14:30;;;;;;;8.17;5.00;;;;;;;;;;5039300;28;20202;-64
2023/05/18 01:17:16;;;;;;;8.23;4.87;;;;;;;;;;5073086;28;20229;-63
2023/05/18 01:19:51;;;;;;;7.57;4.90;;;;;;;;;;5068276;28;20214;-64
2023/05/18 01:22:22;;;;;;;5.97;5.30;;;;;;;;;;5056506;28;20212;-61
2023/05/18 01:24:52;;;;;;;8.87;5.67;;;;;;;;;;5049584;28;20687;-63
2023/05/18 01:27:23;;;;;;;6.73;5.13;;;;;;;;;;5066638;28;20263;-63
2023/05/18 01:29:51;;;;;;;7.27;5.33;;;;;;;;;;5056271;28;20206;-63
2023/05/18 01:32:20;;;;;;;8.03;5.00;;;;;;;;;;5042456;28;20198;-63
2023/05/18 01:34:51;;;;;;;10.90;5.10;;;;;;;;;;5048391;28;20229;-62
2023/05/18 01:37:24;;;;;;;7.73;5.23;;;;;;;;;;5049547;28;20232;-63
2023/05/18 01:40:06;;;;;;;7.93;5.47;;;;;;;;;;5039919;28;20596;-63
2023/05/18 01:42:34;;;;;;;8.07;5.57;;;;;;;;;;5031323;28;20205;-63
2023/05/18 01:45:06;;;;;;;9.20;5.63;;;;;;;;;;5041529;28;20209;-63
2023/05/18 01:47:37;;;;;;;7.10;4.97;;;;;;;;;;5028323;28;20237;-64
2023/05/18 01:50:16;;;;;;;7.90;5.03;;;;;;;;;;5029649;28;20198;-63
2023/05/18 01:52:52;;;;;;;8.20;5.10;;;;;;;;;;5021655;28;20223;-63
2023/05/18 01:55:20;;;;;;;8.17;5.00;;;;;;;;;;5023006;28;20209;-64
2023/05/18 01:57:48;;;;;;;11.13;5.50;;;;;;;;;;5027531;28;20229;-63
2023/05/18 02:00:16;;;;;;;9.97;5.33;;;;;;;;;;5024122;28;20707;-61
2023/05/18 02:02:44;;;;;;;10.53;5.47;;;;;;;;;;5038643;28;20233;-61
2023/05/18 02:05:13;;;;;;;6.17;5.37;;;;;;;;;;5044023;28;20206;-63
2023/05/18 02:07:54;;;;;;;10.23;5.00;;;;;;;;;;5041280;28;20236;-64
2023/05/18 02:10:25;;;;;;;8.13;4.63;;;;;;;;;;5027950;28;20718;-63
2023/05/18 02:12:52;;;;;;;7.93;5.27;;;;;;;;;;5027841;28;20772;-63
2023/05/18 02:15:20;;;;;;;7.87;5.07;;;;;;;;;;5037234;28;20673;-62
2023/05/18 02:17:47;;;;;;;8.30;5.03;;;;;;;;;;5035906;28;20226;-63
2023/05/18 02:20:17;;;;;;;6.47;4.57;;;;;;;;;;5026531;28;20286;-62
2023/05/18 02:22:49;;;;;;;8.27;5.00;;;;;;;;;;5047237;28;20208;-64
2023/05/18 02:25:18;;;;;;;8.37;5.10;;;;;;;;;;5050082;28;20671;-63
2023/05/18 02:27:51;;;;;;;7.63;4.43;;;;;;;;;;5054996;28;20233;-64
2023/05/18 02:30:18;;;;;;;7.40;4.90;;;;;;;;;;5049229;28;20697;-63
2023/05/18 02:32:48;;;;;;;9.20;4.70;;;;;;;;;;5032790;28;20296;-63
2023/05/18 02:35:16;;;;;;;11.97;5.00;;;;;;;;;;5027605;28;20328;-64
2023/05/18 02:37:46;;;;;;;8.47;4.80;;;;;;;;;;5021966;28;20653;-63
2023/05/18 02:40:14;;;;;;;6.33;4.77;;;;;;;;;;5038233;28;20209;-61
2023/05/18 02:42:42;;;;;;;10.30;4.63;;;;;;;;;;5039963;28;20812;-64
2023/05/18 02:45:10;;;;;;;9.13;5.10;;;;;;;;;;5037892;28;20205;-63
2023/05/18 02:47:38;;;;;;;7.43;5.30;;;;;;;;;;5018719;28;20241;-64
2023/05/18 02:50:08;;;;;;;8.53;4.87;;;;;;;;;;5027443;28;20197;-62
2023/05/18 02:52:38;;;;;;;13.63;5.47;;;;;;;;;;5048417;28;20259;-62
2023/05/18 02:55:06;;;;;;;8.73;5.07;;;;;;;;;;5025570;28;20198;-62
2023/05/18 02:57:34;;;;;;;8.30;4.77;;;;;;;;;;5034552;28;20221;-64
2023/05/18 03:00:01;;;;;;;8.13;4.97;;;;;;;;;;5042361;28;21061;-63
2023/05/18 03:02:43;;;;;;;8.37;4.63;;;;;;;;;;5021702;28;20252;-63
2023/05/18 03:05:15;;;;;;;9.97;4.63;;;;;;;;;;5043337;28;20560;-63
2023/05/18 03:07:49;;;;;;;9.10;4.70;;;;;;;;;;5026227;28;20249;-62
2023/05/18 03:10:20;;;;;;;8.70;5.00;;;;;;;;;;5047143;28;22176;-62
2023/05/18 03:12:52;;;;;;;6.17;4.03;;;;;;;;;;5042735;28;20202;-64
2023/05/18 03:15:22;;;;;;;8.73;4.63;;;;;;;;;;5024994;28;20213;-61
2023/05/18 03:17:50;;;;;;;8.93;5.40;;;;;;;;;;5017075;28;20234;-63
2023/05/18 03:20:18;;;;;;;9.40;4.67;;;;;;;;;;5039657;28;20877;-63
2023/05/18 03:22:46;;;;;;;4.90;4.40;;;;;;;;;;5041417;28;20668;-62
2023/05/18 03:25:17;;;;;;;7.07;4.30;;;;;;;;;;5043366;28;20201;-64
2023/05/18 03:27:48;;;;;;;7.83;4.83;;;;;;;;;;5061887;28;20506;-63
2023/05/18 03:30:16;;;;;;;6.87;4.40;;;;;;;;;;5047256;28;20208;-64
2023/05/18 03:32:43;;;;;;;9.03;5.13;;;;;;;;;;5057814;28;20808;-61
2023/05/18 03:35:10;;;;;;;7.43;4.33;;;;;;;;;;5021712;28;20288;-62
2023/05/18 03:37:38;;;;;;;12.50;4.93;;;;;;;;;;5042140;28;20233;-61
2023/05/18 03:40:13;;;;;;;9.60;4.87;;;;;;;;;;5047451;28;20218;-62
2023/05/18 03:42:42;;;;;;;8.53;4.40;;;;;;;;;;5046478;28;20229;-63
2023/05/18 03:45:11;;;;;;;8.60;4.77;;;;;;;;;;5031497;28;20202;-64
2023/05/18 03:47:52;;;;;;;8.33;4.90;;;;;;;;;;5042817;28;20236;-62
2023/05/18 03:50:29;;;;;;;7.37;4.47;;;;;;;;;;5043715;28;20225;-61
2023/05/18 03:52:57;;;;;;;13.47;4.60;;;;;;;;;;5018510;28;20203;-61
2023/05/18 03:55:25;;;;;;;8.57;4.80;;;;;;;;;;5030005;28;20198;-61
2023/05/18 03:58:07;;;;;;;9.30;4.47;;;;;;;;;;5044989;28;20593;-63
2023/05/18 04:00:38;;;;;;;10.33;4.43;;;;;;;;;;5042070;28;20291;-63
2023/05/18 04:03:20;;;;;;;8.50;4.83;;;;;;;;;;5027279;28;20241;-64
2023/05/18 04:05:48;;;;;;;10.80;4.90;;;;;;;;;;5040180;28;20222;-62
2023/05/18 04:08:16;;;;;;;11.93;4.87;;;;;;;;;;5037124;28;20477;-62
2023/05/18 04:10:44;;;;;;;7.70;4.90;;;;;;;;;;5040884;28;20718;-63
2023/05/18 04:13:26;;;;;;;11.80;4.60;;;;;;;;;;5019043;28;20336;-63
2023/05/18 04:15:53;;;;;;;11.13;4.73;;;;;;;;;;5064553;28;20208;-63
2023/05/18 04:18:26;;;;;;;10.03;4.60;;;;;;;;;;5059678;28;20911;-63
2023/05/18 04:20:55;;;;;;;7.57;4.80;;;;;;;;;;5056371;28;20252;-62
2023/05/18 04:23:22;;;;;;;10.33;4.90;;;;;;;;;;5063574;28;20220;-62
2023/05/18 04:25:50;;;;;;;9.10;4.80;;;;;;;;;;5037561;28;20204;-64
2023/05/18 04:28:18;;;;;;;9.53;4.87;;;;;;;;;;5069643;28;20229;-63
2023/05/18 04:33:46;;;;;;;9.93;4.70;;;;;;;;;;5049425;28;20721;-62
2023/05/18 04:36:18;;;;;;;11.50;4.63;;;;;;;;;;5040047;28;20220;-64
2023/05/18 04:38:49;;;;;;;8.73;4.63;;;;;;;;;;5024538;28;20276;-63
2023/05/18 04:41:21;;;;;;;8.87;4.40;;;;;;;;;;5042155;28;20721;-62
2023/05/18 04:43:52;;;;;;;8.57;4.43;;;;;;;;;;5040760;28;20433;-62
2023/05/18 04:46:21;;;;;;;7.03;4.47;;;;;;;;;;5028976;28;20194;-64
2023/05/18 04:48:56;;;;;;;11.33;5.40;;;;;;;;;;5045109;28;20237;-63
2023/05/18 04:51:29;;;;;;;8.90;4.23;;;;;;;;;;5027062;28;20213;-64
2023/05/18 04:53:56;;;;;;;8.23;4.40;;;;;;;;;;5037647;28;20229;-63
2023/05/18 04:56:24;;;;;;;7.23;4.30;;;;;;;;;;5026300;28;20263;-62
2023/05/18 04:58:58;;;;;;;8.27;4.77;;;;;;;;;;5047987;28;20720;-63
2023/05/18 05:01:25;;;;;;;8.27;4.30;;;;;;;;;;5041221;28;20229;-64
2023/05/18 05:03:53;;;;;;;8.03;4.50;;;;;;;;;;5032628;28;20293;-63
2023/05/18 05:06:23;;;;;;;4.87;4.33;;;;;;;;;;5031294;28;20213;-63
2023/05/18 05:08:50;;;;;;;6.77;4.57;;;;;;;;;;5056182;28;20260;-64
2023/05/18 05:11:18;;;;;;;8.60;4.23;;;;;;;;;;5058040;28;20301;-64
2023/05/18 05:13:45;;;;;;;8.77;4.70;;;;;;;;;;5060987;28;20202;-64
2023/05/18 05:16:12;;;;;;;10.57;4.97;;;;;;;;;;5061726;28;20248;-64
2023/05/18 05:18:41;;;;;;;13.87;5.07;;;;;;;;;;5060658;28;20796;-61
2023/05/18 05:21:14;;;;;;;9.37;4.23;;;;;;;;;;5062549;28;20672;-63
2023/05/18 05:23:45;;;;;;;7.97;4.40;;;;;;;;;;5047299;28;20214;-63
2023/05/18 05:26:12;;;;;;;12.30;4.70;;;;;;;;;;5073069;28;20240;-64
2023/05/18 05:28:39;;;;;;;6.83;3.70;;;;;;;;;;5055626;28;20241;-64
2023/05/18 05:31:08;;;;;;;8.77;3.33;;;;;;;;;;5077689;28;20206;-64
2023/05/18 05:33:40;;;;;;;5.23;2.93;;;;;;;;;;5075896;28;20209;-63
2023/05/18 05:36:09;;;;;;;6.80;3.08;;;;;;;;;;5059862;28;20281;-63
2023/05/18 05:38:38;;;;;;;5.32;2.90;;;;;;;;;;5042755;28;20245;-63
2023/05/18 05:41:05;;;;;;;6.30;3.30;;;;;;;;;;5052592;28;20229;-64
2023/05/18 05:43:33;;;;;;;7.13;2.90;;;;;;;;;;5043447;28;20218;-64
2023/05/18 05:46:01;;;;;;;7.57;3.08;;;;;;;;;;5050282;28;20206;-63
2023/05/18 05:48:42;;;;;;;5.80;3.22;;;;;;;;;;5064337;28;20229;-63
2023/05/18 05:51:10;;;;;;;7.72;3.55;;;;;;;;;;5063237;28;20672;-64
2023/05/18 05:53:42;;;;;;;7.57;3.65;;;;;;;;;;5063703;28;20208;-63
2023/05/18 05:56:17;;;;;;;5.45;3.13;;;;;;;;;;5064089;28;20194;-64
2023/05/18 05:58:45;;;;;;;8.35;3.50;;;;;;;;;;5065717;28;20228;-63
2023/05/18 06:01:12;;;;;;;4.97;3.38;;;;;;;;;;5064802;28;20205;-64
2023/05/18 06:03:40;;;;;;;4.85;3.50;;;;;;;;;;5079096;28;20663;-62
2023/05/18 06:06:17;;;;;;;5.35;3.55;;;;;;;;;;5047741;28;20219;-64
2023/05/18 06:08:47;;;;;;;5.95;3.50;;;;;;;;;;5042809;28;20563;-63
2023/05/18 06:11:28;;;;;;;6.07;3.58;;;;;;;;;;5035088;28;20217;-62
2023/05/18 06:13:55;;;;;;;4.88;3.40;;;;;;;;;;5059407;28;20257;-62
2023/05/18 06:16:24;;;;;;;6.20;4.10;;;;;;;;;;5060510;28;20205;-63
2023/05/18 06:18:51;;;;;;;8.23;4.00;;;;;;;;;;5046008;28;20264;-65
2023/05/18 06:21:19;;;;;;;8.37;4.17;;;;;;;;;;5050363;28;20209;-63
2023/05/18 06:23:46;;;;;;;6.87;4.20;;;;;;;;;;5069604;28;20706;-62
2023/05/18 06:26:14;;;;;;;11.80;4.30;;;;;;;;;;5053494;28;20618;-63
2023/05/18 06:28:41;;;;;;;8.50;4.47;;;;;;;;;;5046738;28;20237;-63
2023/05/18 06:31:08;;;;;;;9.87;4.43;;;;;;;;;;5073842;28;20891;-64
2023/05/18 06:33:36;;;;;;;8.33;4.43;;;;;;;;;;5073969;28;20230;-63
2023/05/18 06:36:03;;;;;;;8.80;4.77;;;;;;;;;;5065198;28;20205;-64
2023/05/18 06:38:31;;;;;;;5.50;4.03;;;;;;;;;;5059026;28;20230;-64
2023/05/18 06:40:58;;;;;;;6.53;4.47;;;;;;;;;;5062290;28;20205;-64
2023/05/18 06:43:27;;;;;;;7.57;4.40;;;;;;;;;;5045702;28;20205;-63
2023/05/18 06:45:55;;;;;;;7.63;4.03;;;;;;;;;;5040817;28;20212;-63
2023/05/18 06:48:25;;;;;;;5.93;3.97;;;;;;;;;;5041399;28;20229;-63
2023/05/18 06:50:52;;;;;;;10.83;4.93;;;;;;;;;;5041682;28;20247;-64
2023/05/18 06:53:22;;;;;;;6.40;4.40;;;;;;;;;;5059929;28;20206;-63
2023/05/18 06:55:49;;;;;;;5.70;4.40;;;;;;;;;;5035914;28;20802;-64
2023/05/18 06:58:16;;;;;;;7.90;5.30;;;;;;;;;;5042506;28;20224;-64
2023/05/18 07:00:44;;;;;;;8.17;4.60;;;;;;;;;;5040771;28;20241;-62
2023/05/18 07:03:11;;;;;;;11.50;4.13;;;;;;;;;;5036363;28;20206;-63
2023/05/18 07:05:39;;;;;;;7.00;4.30;;;;;;;;;;5036598;28;20213;-63
2023/05/18 07:08:08;;;;;;;9.00;4.30;;;;;;;;;;5037822;28;20236;-63
2023/05/18 07:10:39;;;;;;;6.20;4.37;;;;;;;;;;5027909;28;20209;-63
2023/05/18 07:13:07;;;;;;;9.60;4.50;;;;;;;;;;5039125;28;20216;-62
2023/05/18 07:15:36;;;;;;;6.40;4.50;;;;;;;;;;5048707;28;20921;-63
2023/05/18 07:18:03;;;;;;;8.30;4.30;;;;;;;;;;5060396;28;20227;-64
2023/05/18 07:20:31;;;;;;;7.43;4.33;;;;;;;;;;5039542;28;20229;-63
2023/05/18 07:22:58;;;;;;;7.20;4.40;;;;;;;;;;5051386;28;20224;-63
2023/05/18 07:25:27;;;;;;;9.73;4.77;;;;;;;;;;5053850;28;20201;-64
2023/05/18 07:27:58;;;;;;;9.40;4.87;;;;;;;;;;5055388;28;20229;-63
2023/05/18 07:30:25;;;;;;;8.00;4.20;;;;;;;;;;5047262;28;20232;-64
2023/05/18 07:32:53;;;;;;;13.47;5.00;;;;;;;;;;5050404;28;20198;-63
2023/05/18 07:35:21;;;;;;;6.57;4.33;;;;;;;;;;5029354;28;21673;-61
2023/05/18 07:37:50;;;;;;;7.77;4.33;;;;;;;;;;5033862;28;20291;-64
2023/05/18 07:40:18;;;;;;;8.37;4.77;;;;;;;;;;5048939;28;21067;-63
2023/05/18 07:42:47;;;;;;;7.97;4.70;;;;;;;;;;5031376;28;20683;-64
2023/05/18 07:45:15;;;;;;;7.43;4.10;;;;;;;;;;5030057;28;20227;-64
2023/05/18 07:47:42;;;;;;;6.17;3.90;;;;;;;;;;5038976;28;20236;-63
2023/05/18 07:50:10;;;;;;;8.17;4.53;;;;;;;;;;5041606;28;20284;-63
2023/05/18 07:52:38;;;;;;;7.77;4.70;;;;;;;;;;5023630;28;20284;-64
2023/05/18 07:55:06;;;;;;;9.37;4.60;;;;;;;;;;5048961;28;20648;-63
2023/05/18 07:57:35;;;;;;;9.57;4.57;;;;;;;;;;5028554;28;20832;-62
2023/05/18 08:00:08;;;;;;;11.83;4.67;;;;;;;;;;5053678;28;20212;-63
2023/05/18 08:02:38;;;;;;;7.93;5.13;;;;;;;;;;5035041;28;20213;-64
2023/05/18 08:05:07;;;;;;;11.83;4.97;;;;;;;;;;5033353;28;20202;-64
2023/05/18 08:07:34;;;;;;;9.97;4.50;;;;;;;;;;5037040;28;20300;-63
2023/05/18 08:10:02;;;;;;;10.53;5.43;;;;;;;;;;5040462;28;20292;-64
2023/05/18 08:12:33;;;;;;;9.67;4.73;;;;;;;;;;5035976;28;20211;-62
2023/05/18 08:15:01;;;;;;;9.90;4.77;;;;;;;;;;5048224;28;20224;-63
2023/05/18 08:17:30;;;;;;;11.97;5.23;;;;;;;;;;5033145;28;20228;-64
2023/05/18 08:20:01;;;;;;;7.43;4.57;;;;;;;;;;5048703;28;20205;-64
2023/05/18 08:22:29;;;;;;;7.87;4.17;;;;;;;;;;5026421;28;20213;-63
2023/05/18 08:24:59;;;;;;;11.13;4.93;;;;;;;;;;5043913;28;20260;-63
2023/05/18 08:27:28;;;;;;;8.70;4.53;;;;;;;;;;5053309;28;20234;-64
2023/05/18 08:30:10;;;;;;;7.00;4.53;;;;;;;;;;5046629;28;20212;-62
2023/05/18 08:32:48;;;;;;;8.27;4.67;;;;;;;;;;5052380;28;20707;-63
2023/05/18 08:35:31;;;;;;;5.97;4.83;;;;;;;;;;5036605;28;20209;-62
2023/05/18 08:38:00;;;;;;;9.33;4.33;;;;;;;;;;5061306;28;20261;-63
2023/05/18 08:40:43;;;;;;;8.33;4.50;;;;;;;;;;5058402;28;20511;-64
2023/05/18 08:43:21;;;;;;;8.40;4.30;;;;;;;;;;5060978;28;20212;-62
2023/05/18 08:46:05;;;;;;;8.07;3.70;;;;;;;;;;5058436;28;20304;-63
2023/05/18 08:48:33;;;;;;;9.33;4.27;;;;;;;;;;5050777;28;20229;-63
2023/05/18 08:51:08;;;;;;;8.27;4.00;;;;;;;;;;5047702;28;20233;-62
2023/05/18 08:53:37;;;;;;;6.97;3.90;;;;;;;;;;5038564;28;20197;-64
2023/05/18 08:56:05;;;;;;;8.03;3.93;;;;;;;;;;5056631;28;20849;-63
2023/05/18 08:58:35;;;;;;;7.83;4.17;;;;;;;;;;5057505;28;20531;-64
2023/05/18 09:01:03;;;;;;;7.93;4.00;;;;;;;;;;5065677;28;20234;-64
2023/05/18 09:03:32;;;;;;;8.63;4.20;;;;;;;;;;5039669;28;20202;-63
2023/05/18 09:06:00;;;;;;;9.03;3.93;;;;;;;;;;5024919;28;20213;-64
2023/05/18 09:08:28;;;;;;;7.10;3.73;;;;;;;;;;5033197;28;20237;-63
2023/05/18 09:10:57;;;;;;;5.20;3.57;;;;;;;;;;5049565;28;20555;-63
2023/05/18 09:13:25;;;;;;;7.07;4.00;;;;;;;;;;5043576;28;20202;-64
2023/05/18 09:15:53;;;;;;;8.37;4.00;;;;;;;;;;5049888;28;20227;-62
2023/05/18 09:18:22;;;;;;;7.72;4.53;;;;;;;;;;5038875;28;20236;-63
2023/05/18 09:20:53;;;;;;;6.65;3.63;;;;;;;;;;5047206;28;20360;-64
2023/05/18 09:23:21;;;;;;;7.15;3.50;;;;;;;;;;5045879;28;20284;-63
2023/05/18 09:25:49;;;;;;;8.57;3.60;;;;;;;;;;5056020;28;20244;-64
2023/05/18 09:28:27;;;;;;;7.00;3.77;;;;;;;;;;5056388;28;20282;-64
2023/05/18 09:30:54;;;;;;;6.57;3.60;;;;;;;;;;5041915;28;20202;-64
2023/05/18 09:33:32;;;;;;;8.77;3.53;;;;;;;;;;5048296;28;20620;-62
2023/05/18 09:36:14;;;;;;;5.33;3.90;;;;;;;;;;5038411;28;21627;-63
2023/05/18 09:38:51;;;;;;;4.40;3.37;;;;;;;;;;5053161;28;20310;-63
2023/05/18 09:41:18;;;;;;;7.87;4.17;;;;;;;;;;5017221;28;20709;-64
2023/05/18 09:43:52;;;;;;;6.17;3.93;;;;;;;;;;5034795;28;20217;-63
2023/05/18 09:46:20;;;;;;;6.22;4.03;;;;;;;;;;5040966;28;20220;-63
2023/05/18 09:48:52;;;;;;;7.53;4.20;;;;;;;;;;5059857;28;20225;-62
2023/05/18 09:51:38;;;;;;;8.75;3.72;;;;;;;;;;5034673;28;20211;-62
2023/05/18 09:54:10;;;;;;;6.88;3.63;;;;;;;;;;5044971;28;20201;-62
2023/05/18 09:56:41;;;;;;;8.30;5.65;;;;;;;;;;5044995;28;20519;-63
2023/05/18 09:59:15;;;;;;;12.23;9.10;;;;;;;;;;5046108;28;20298;-63
2023/05/18 10:02:11;;;;;;;16.23;8.63;;;;;;;;;;5039734;28;20213;-62
2023/05/18 10:04:45;;;;;;;16.08;8.48;;;;;;;;;;5065757;28;20254;-62
2023/05/18 10:07:15;;;;;;;7.60;5.00;;;;;;;;;;5077028;28;20206;-64
2023/05/18 10:09:45;;;;;;;6.53;4.70;;;;;;;;;;5064432;28;20309;-62
2023/05/18 10:12:14;;;;;;;9.52;4.57;;;;;;;;;;5045663;28;20197;-64
2023/05/18 10:14:43;;;;;;;8.18;5.50;;;;;;;;;;5046155;28;20205;-64
2023/05/18 10:17:14;;;;;;;8.18;3.88;;;;;;;;;;5042462;28;20218;-64
2023/05/18 10:19:45;;;;;;;8.55;4.20;;;;;;;;;;5059666;28;20355;-64
2023/05/18 10:22:25;;;;;;;7.43;4.10;;;;;;;;;;5043753;28;20671;-63
2023/05/18 10:25:08;;;;;;;4.72;3.47;;;;;;;;;;5043078;28;20241;-63
2023/05/18 10:27:43;;;;;;;6.88;3.90;;;;;;;;;;5043005;28;20631;-63
2023/05/18 10:30:13;;;;;;;6.60;4.18;;;;;;;;;;5052025;28;20217;-64
2023/05/18 10:32:42;;;;;;;8.50;3.67;;;;;;;;;;5037443;28;20225;-64
2023/05/18 10:35:10;;;;;;;8.60;3.92;;;;;;;;;;5045551;28;20655;-64
2023/05/18 10:37:47;;;;;;;6.82;4.18;;;;;;;;;;5043026;28;20271;-64
2023/05/18 10:40:28;;;;;;;6.80;3.78;;;;;;;;;;5033978;28;20674;-64
2023/05/18 10:43:10;;;;;;;6.43;3.53;;;;;;;;;;5037795;28;20209;-63
2023/05/18 10:45:39;;;;;;;6.72;3.80;;;;;;;;;;5058125;28;20718;-63
2023/05/18 10:48:09;;;;;;;4.90;3.30;;;;;;;;;;5062967;28;20229;-63
2023/05/18 10:50:38;;;;;;;9.07;3.72;;;;;;;;;;5059865;28;20210;-64
2023/05/18 10:53:20;;;;;;;7.00;4.32;;;;;;;;;;5043592;28;20204;-64
2023/05/18 10:55:59;;;;;;;8.43;4.78;;;;;;;;;;5062316;28;20263;-64
2023/05/18 10:58:32;;;;;;;6.32;3.15;;;;;;;;;;5063557;28;20237;-63
2023/05/18 11:01:02;;;;;;;4.13;2.90;;;;;;;;;;5057757;28;20206;-62
2023/05/18 11:03:32;;;;;;;8.40;3.75;;;;;;;;;;5025016;28;20233;-64
2023/05/18 11:06:10;;;;;;;4.93;3.10;;;;;;;;;;5039941;28;20204;-64
2023/05/18 11:08:44;;;;;;;6.43;3.05;;;;;;;;;;5039428;28;20317;-64
2023/05/18 11:11:14;;;;;;;6.55;2.80;;;;;;;;;;5039790;28;20557;-63
2023/05/18 11:13:50;;;;;;;4.90;3.05;;;;;;;;;;5057083;28;20201;-63
2023/05/18 11:16:19;;;;;;;6.43;3.40;;;;;;;;;;5043297;28;20472;-64
2023/05/18 11:18:51;;;;;;;7.38;3.28;;;;;;;;;;5042943;28;20577;-64
2023/05/18 11:21:19;;;;;;;4.57;3.08;;;;;;;;;;5042089;28;20250;-64
2023/05/18 11:24:06;;;;;;;5.25;3.08;;;;;;;;;;5065225;28;20210;-63
2023/05/18 11:26:48;;;;;;;3.83;3.15;;;;;;;;;;5060598;28;20209;-64
2023/05/18 11:29:45;;;;;;;5.47;3.20;;;;;;;;;;5040277;28;20626;-64
2023/05/18 11:32:22;;;;;;;6.57;3.40;;;;;;;;;;5035691;28;20217;-64
2023/05/18 11:34:58;;;;;;;6.40;2.88;;;;;;;;;;5040760;28;20256;-64
2023/05/18 11:37:38;;;;;;;4.60;3.17;;;;;;;;;;5047356;28;20313;-64
2023/05/18 11:40:09;;;;;;;4.30;3.03;;;;;;;;;;5036869;28;20213;-65
2023/05/18 11:42:38;;;;;;;6.57;2.75;;;;;;;;;;5026850;28;20214;-64
2023/05/18 11:45:19;;;;;;;8.45;3.33;;;;;;;;;;5046724;28;20232;-63
2023/05/18 11:47:48;;;;;;;4.82;3.40;;;;;;;;;;5062359;28;20226;-63
2023/05/18 11:50:17;;;;;;;7.15;3.05;;;;;;;;;;5057784;28;20313;-64
2023/05/18 11:52:51;;;;;;;5.40;3.00;;;;;;;;;;5054068;28;20271;-64
2023/05/18 11:55:20;;;;;;;4.93;3.22;;;;;;;;;;5035445;28;20213;-64
2023/05/18 11:57:53;;;;;;;6.13;3.20;;;;;;;;;;5044046;28;20225;-64
2023/05/18 12:00:35;;;;;;;5.35;2.75;;;;;;;;;;5034816;28;20722;-64
2023/05/18 12:03:03;;;;;;;6.78;2.90;;;;;;;;;;5044980;28;20205;-64
2023/05/18 12:05:48;;;;;;;4.72;2.80;;;;;;;;;;5034678;28;20208;-63
2023/05/18 12:08:25;;;;;;;5.47;3.25;;;;;;;;;;5067733;28;20221;-64
2023/05/18 12:10:52;;;;;;;10.00;3.08;;;;;;;;;;5033572;28;20607;-64
2023/05/18 12:13:23;;;;;;;6.97;3.03;;;;;;;;;;5062193;28;20209;-63
2023/05/18 12:15:51;;;;;;;8.65;3.85;;;;;;;;;;5040893;28;20205;-63
2023/05/18 12:18:28;;;;;;;7.30;3.17;;;;;;;;;;5056524;28;20225;-63
2023/05/18 12:20:59;;;;;;;4.35;2.63;;;;;;;;;;5061296;28;20213;-63
2023/05/18 12:23:37;;;;;;;8.00;3.10;;;;;;;;;;5045187;28;20299;-62
2023/05/18 12:26:04;;;;;;;5.95;2.78;;;;;;;;;;5043700;28;21395;-64
2023/05/18 12:28:32;;;;;;;5.18;2.70;;;;;;;;;;5040433;28;20424;-64
2023/05/18 12:31:06;;;;;;;8.05;2.80;;;;;;;;;;5043532;28;20229;-62
2023/05/18 12:33:50;;;;;;;6.35;2.83;;;;;;;;;;5047971;28;20557;-64
2023/05/18 12:36:26;;;;;;;3.95;2.83;;;;;;;;;;5058974;28;20855;-64
2023/05/18 12:38:53;;;;;;;6.53;2.63;;;;;;;;;;5047383;28;20225;-63
2023/05/18 12:41:22;;;;;;;5.40;2.63;;;;;;;;;;5041831;28;20550;-63
2023/05/18 12:43:50;;;;;;;7.13;2.97;;;;;;;;;;5057303;28;20209;-63
2023/05/18 12:46:18;;;;;;;6.72;2.97;;;;;;;;;;5040444;28;20263;-64
2023/05/18 12:49:00;;;;;;;6.78;2.83;;;;;;;;;;5036664;28;20659;-64
2023/05/18 12:51:33;;;;;;;5.72;4.70;;;;;;;;;;5040706;28;20209;-64
2023/05/18 12:54:02;;;;;;;13.85;8.35;;;;;;;;;;5053237;28;20214;-64
2023/05/18 12:56:50;;;;;;;10.30;6.03;;;;;;;;;;5076054;28;20270;-64
2023/05/18 12:59:20;;;;;;;9.38;4.07;;;;;;;;;;5060488;28;20221;-64
2023/05/18 13:01:48;;;;;;;6.30;3.40;;;;;;;;;;5055171;28;20263;-63
2023/05/18 13:04:15;;;;;;;10.25;4.40;;;;;;;;;;5069381;28;20233;-63
2023/05/18 13:06:45;;;;;;;10.85;5.50;;;;;;;;;;5052601;28;20209;-64
2023/05/18 13:09:12;;;;;;;7.15;5.53;;;;;;;;;;5048704;28;20727;-63
2023/05/18 13:11:40;;;;;;;12.25;6.20;;;;;;;;;;5043359;28;20206;-63
2023/05/18 13:14:09;;;;;;;9.98;5.60;;;;;;;;;;5045007;28;20205;-63
2023/05/18 13:16:45;;;;;;;7.35;3.22;;;;;;;;;;5056571;28;20264;-64
2023/05/18 13:19:19;;;;;;;7.78;3.40;;;;;;;;;;5037237;28;20240;-63
2023/05/18 13:21:56;;;;;;;4.65;3.22;;;;;;;;;;5041955;28;20213;-64
2023/05/18 13:24:26;;;;;;;7.80;4.55;;;;;;;;;;5036913;28;20525;-64
2023/05/18 13:26:53;;;;;;;22.70;14.25;;;;;;;;;;5033937;28;20301;-63
2023/05/18 13:29:22;;;;;;;17.35;11.43;;;;;;;;;;5042497;28;20226;-64
2023/05/18 13:31:52;;;;;;;5.70;4.32;;;;;;;;;;5058412;28;20308;-63
2023/05/18 13:34:20;;;;;;;6.38;3.30;;;;;;;;;;5038542;28;20209;-63
2023/05/18 13:37:01;;;;;;;7.15;3.30;;;;;;;;;;5070300;28;20221;-64
2023/05/18 13:39:28;;;;;;;10.18;5.10;;;;;;;;;;5062207;28;20213;-64
2023/05/18 13:41:58;;;;;;;5.47;2.80;;;;;;;;;;5044243;28;20210;-63
2023/05/18 13:44:26;;;;;;;5.32;2.80;;;;;;;;;;5036479;28;20268;-63
2023/05/18 13:46:56;;;;;;;7.22;3.38;;;;;;;;;;5034892;28;23442;-63
2023/05/18 13:49:26;;;;;;;6.88;2.80;;;;;;;;;;5059160;28;20253;-64
2023/05/18 13:51:58;;;;;;;5.95;2.88;;;;;;;;;;5038946;28;20295;-64
2023/05/18 13:54:26;;;;;;;5.47;2.95;;;;;;;;;;5035912;28;20198;-63
2023/05/18 13:56:54;;;;;;;7.97;2.90;;;;;;;;;;5063700;28;20566;-62
2023/05/18 13:59:22;;;;;;;5.50;2.97;;;;;;;;;;5057519;28;20220;-62
2023/05/18 14:01:49;;;;;;;4.57;2.38;;;;;;;;;;5050471;28;20210;-64
2023/05/18 14:04:16;;;;;;;5.00;2.65;;;;;;;;;;5031881;28;20210;-64
2023/05/18 14:06:54;;;;;;;5.97;2.85;;;;;;;;;;5044123;28;20213;-63
2023/05/18 14:09:22;;;;;;;9.63;3.40;;;;;;;;;;5025332;28;20237;-63
2023/05/18 14:11:49;;;;;;;3.60;2.58;;;;;;;;;;5044684;28;20205;-64
2023/05/18 14:14:20;;;;;;;7.95;3.03;;;;;;;;;;5039880;28;21791;-62
2023/05/18 14:16:48;;;;;;;4.28;2.45;;;;;;;;;;5034453;28;20208;-63
2023/05/18 14:19:15;;;;;;;6.00;2.60;;;;;;;;;;5025934;28;20239;-63
2023/05/18 14:21:43;;;;;;;7.53;3.10;;;;;;;;;;5031633;28;20241;-63
2023/05/18 14:24:10;;;;;;;5.43;2.72;;;;;;;;;;5043387;28;20702;-63
2023/05/18 14:26:38;;;;;;;8.27;3.00;;;;;;;;;;5032878;28;21381;-63
2023/05/18 14:29:07;;;;;;;3.70;2.55;;;;;;;;;;5047073;28;20326;-63
2023/05/18 14:31:34;;;;;;;7.05;2.40;;;;;;;;;;5021550;28;20211;-63
2023/05/18 14:34:02;;;;;;;4.32;2.40;;;;;;;;;;5019588;28;20208;-63
2023/05/18 14:36:43;;;;;;;6.72;2.60;;;;;;;;;;5058851;28;20194;-63
2023/05/18 14:39:16;;;;;;;7.57;2.70;;;;;;;;;;5033914;28;20241;-62
2023/05/18 14:41:46;;;;;;;4.63;2.60;;;;;;;;;;5053213;28;20202;-63
2023/05/18 14:44:17;;;;;;;7.60;2.70;;;;;;;;;;5052043;28;20198;-63
2023/05/18 14:46:45;;;;;;;5.80;3.42;;;;;;;;;;5037761;28;20205;-63
2023/05/18 14:49:27;;;;;;;7.35;2.90;;;;;;;;;;5050929;28;20369;-64
2023/05/18 14:52:04;;;;;;;6.65;2.67;;;;;;;;;;5053693;28;20202;-64
2023/05/18 14:54:34;;;;;;;6.15;2.80;;;;;;;;;;5039819;28;20219;-62
2023/05/18 14:57:01;;;;;;;5.60;3.13;;;;;;;;;;5054657;28;20243;-63
2023/05/18 14:59:29;;;;;;;4.25;3.20;;;;;;;;;;5045758;28;20221;-63
2023/05/18 15:01:56;;;;;;;7.15;3.10;;;;;;;;;;5033950;28;20635;-62
2023/05/18 15:04:25;;;;;;;5.20;2.50;;;;;;;;;;5030742;28;20210;-63
2023/05/18 15:06:54;;;;;;;6.38;2.95;;;;;;;;;;5057114;28;20197;-64